Time;durP1;ratioP1;P1;durP2;ratioP2;P2;SDS_P1;SDS_P2;PMS_P1;PMS_P2;Temp;Humidity;BMP_temperature;BMP_pressure;BME280_temperature;BME280_humidity;BME280_pressure;Samples;Min_cycle;Max_cycle;Signal;HPM_P1;HPM_P2
2022/06/14 00:01:53;;;;;;;8.33;1.97;;;14.60;99.90;;;;;;5047266;28;20210;-55
2022/06/14 00:04:20;;;;;;;6.57;2.03;;;14.60;99.90;;;;;;5047999;28;20234;-55
2022/06/14 00:06:47;;;;;;;7.43;2.60;;;14.60;99.90;;;;;;5041815;28;20272;-54
2022/06/14 00:09:14;;;;;;;5.27;1.83;;;14.60;99.90;;;;;;5042974;28;20268;-55
2022/06/14 00:11:41;;;;;;;6.57;1.93;;;14.50;99.90;;;;;;5043526;28;20208;-55
2022/06/14 00:14:10;;;;;;;3.93;1.97;;;14.60;99.90;;;;;;5034186;28;20588;-54
2022/06/14 00:16:38;;;;;;;7.13;1.90;;;14.50;99.90;;;;;;5035595;28;20269;-55
2022/06/14 00:19:06;;;;;;;6.73;2.00;;;14.50;99.90;;;;;;5044621;28;20523;-54
2022/06/14 00:21:35;;;;;;;5.90;2.27;;;14.60;99.90;;;;;;5042583;28;20333;-55
2022/06/14 00:24:04;;;;;;;8.73;2.40;;;14.60;99.90;;;;;;5042334;28;20283;-55
2022/06/14 00:26:31;;;;;;;9.00;1.90;;;14.50;99.90;;;;;;5045707;28;20668;-56
2022/06/14 00:28:58;;;;;;;9.57;2.30;;;14.50;99.90;;;;;;5041086;28;20280;-55
2022/06/14 00:31:26;;;;;;;5.97;2.20;;;14.50;99.90;;;;;;5043664;28;20740;-56
2022/06/14 00:33:54;;;;;;;8.30;2.20;;;14.50;99.90;;;;;;5052439;28;20199;-55
2022/06/14 00:36:34;;;;;;;3.40;1.80;;;14.40;99.90;;;;;;5042400;28;20555;-55
2022/06/14 00:39:05;;;;;;;4.40;1.87;;;14.30;99.90;;;;;;5041931;28;20267;-54
2022/06/14 00:41:43;;;;;;;4.27;2.53;;;14.20;99.90;;;;;;5037890;28;20204;-54
2022/06/14 00:44:23;;;;;;;3.83;1.37;;;14.20;99.90;;;;;;5030946;28;20265;-55
2022/06/14 00:47:01;;;;;;;4.13;1.93;;;14.00;99.90;;;;;;5046000;28;20200;-56
2022/06/14 00:49:50;;;;;;;7.53;1.90;;;14.00;99.90;;;;;;5046849;28;20249;-54
2022/06/14 00:52:41;;;;;;;7.50;2.23;;;13.90;99.90;;;;;;5058766;28;20221;-56
2022/06/14 00:55:29;;;;;;;4.60;2.03;;;14.00;99.90;;;;;;5044442;28;20778;-56
2022/06/14 00:58:12;;;;;;;6.37;2.27;;;14.00;99.90;;;;;;5051073;28;20293;-54
2022/06/14 01:00:48;;;;;;;6.27;2.10;;;14.00;99.90;;;;;;5050659;28;20673;-56
2022/06/14 01:03:21;;;;;;;8.53;2.30;;;14.00;99.90;;;;;;5053517;28;20649;-55
2022/06/14 01:06:06;;;;;;;6.07;2.20;;;14.00;99.90;;;;;;5044286;28;20240;-56
2022/06/14 01:08:42;;;;;;;5.77;1.80;;;13.90;99.90;;;;;;5040600;28;20225;-55
2022/06/14 01:11:15;;;;;;;6.40;2.50;;;13.90;99.90;;;;;;5047202;28;20280;-56
2022/06/14 01:13:43;;;;;;;4.20;2.17;;;14.00;99.90;;;;;;5048593;28;20213;-55
2022/06/14 01:16:11;;;;;;;3.83;1.80;;;14.00;99.90;;;;;;5052496;28;20273;-55
2022/06/14 01:18:39;;;;;;;6.20;1.97;;;13.90;99.90;;;;;;5048881;28;20211;-56
2022/06/14 01:21:09;;;;;;;7.43;2.10;;;14.00;99.90;;;;;;5044636;28;20198;-55
2022/06/14 01:23:37;;;;;;;9.03;2.50;;;13.90;99.90;;;;;;5047392;28;20210;-55
2022/06/14 01:26:13;;;;;;;6.53;2.30;;;13.90;99.90;;;;;;5049237;28;20356;-55
2022/06/14 01:28:44;;;;;;;5.80;2.10;;;14.00;99.90;;;;;;5047366;28;20693;-56
2022/06/14 01:31:13;;;;;;;6.47;2.00;;;13.90;99.90;;;;;;5047189;28;20658;-55
2022/06/14 01:33:50;;;;;;;8.43;2.17;;;14.00;99.90;;;;;;5052125;28;20622;-55
2022/06/14 01:36:23;;;;;;;6.87;2.20;;;13.90;99.90;;;;;;5049148;28;20218;-55
2022/06/14 01:38:51;;;;;;;5.03;2.47;;;13.80;99.90;;;;;;5036864;28;20206;-56
2022/06/14 01:42:03;;;;;;;8.07;2.17;;;13.70;99.90;;;;;;5043635;28;20299;-56
2022/06/14 01:44:57;;;;;;;7.37;1.90;;;13.50;99.90;;;;;;4991288;28;20241;-55
2022/06/14 01:47:37;;;;;;;2.37;1.70;;;13.30;99.90;;;;;;5051793;28;20660;-55
2022/06/14 01:53:30;;;;;;;4.33;2.03;;;13.20;99.90;;;;;;5049531;28;20216;-56
2022/06/14 01:56:29;;;;;;;4.37;1.87;;;13.10;99.90;;;;;;5044827;28;20307;-55
2022/06/14 01:59:12;;;;;;;5.30;2.13;;;13.20;99.90;;;;;;5034995;28;20213;-55
2022/06/14 02:02:05;;;;;;;7.53;2.13;;;13.00;99.90;;;;;;5048987;28;20286;-55
2022/06/14 02:04:47;;;;;;;5.50;2.00;;;12.90;99.90;;;;;;5049450;28;20877;-55
2022/06/14 02:07:26;;;;;;;6.30;2.07;;;12.90;99.90;;;;;;5054980;28;20203;-55
2022/06/14 02:10:01;;;;;;;3.70;1.97;;;12.90;99.90;;;;;;5049304;28;20231;-55
2022/06/14 02:13:02;;;;;;;2.87;2.00;;;12.90;99.90;;;;;;5046904;28;20273;-55
2022/06/14 02:15:41;;;;;;;6.60;2.00;;;12.80;99.90;;;;;;5046783;28;20196;-56
2022/06/14 02:18:14;;;;;;;6.27;2.30;;;12.70;99.90;;;;;;5050594;28;20201;-55
2022/06/14 02:21:05;;;;;;;3.67;2.00;;;12.70;99.90;;;;;;5035947;28;20308;-54
2022/06/14 02:23:39;;;;;;;3.90;2.70;;;12.80;99.90;;;;;;5001089;28;20420;-55
2022/06/14 02:26:28;;;;;;;8.60;2.20;;;12.80;99.90;;;;;;5047666;28;20261;-54
2022/06/14 02:29:25;;;;;;;6.07;2.13;;;12.70;99.90;;;;;;5034436;28;20303;-55
2022/06/14 02:32:03;;;;;;;3.93;1.90;;;12.70;99.90;;;;;;5048206;28;20194;-55
2022/06/14 02:34:53;;;;;;;5.20;2.97;;;12.80;99.90;;;;;;5048950;28;20319;-55
2022/06/14 02:37:52;;;;;;;6.93;2.43;;;12.60;99.90;;;;;;5047476;28;20204;-58
2022/06/14 02:40:26;;;;;;;3.80;2.40;;;12.50;99.90;;;;;;5047155;28;20203;-56
2022/06/14 02:43:12;;;;;;;3.87;2.47;;;12.50;99.90;;;;;;5043481;28;20758;-56
2022/06/14 02:45:57;;;;;;;4.93;2.27;;;12.60;99.90;;;;;;5051642;28;20205;-55
2022/06/14 02:48:28;;;;;;;5.93;2.47;;;12.60;99.90;;;;;;5048453;28;20230;-55
2022/06/14 02:51:12;;;;;;;7.13;2.50;;;12.50;99.90;;;;;;5061069;28;20207;-55
2022/06/14 02:53:58;;;;;;;5.50;2.50;;;12.50;99.90;;;;;;5051329;28;20675;-56
2022/06/14 02:56:56;;;;;;;4.63;2.40;;;12.50;99.90;;;;;;5043759;28;20290;-54
2022/06/14 02:59:26;;;;;;;4.17;2.60;;;12.50;99.90;;;;;;5047362;28;20331;-55
2022/06/14 03:02:13;;;;;;;6.67;1.90;;;12.50;99.90;;;;;;5042086;28;20645;-53
2022/06/14 03:04:53;;;;;;;5.03;2.53;;;12.60;99.90;;;;;;5047462;28;20222;-55
2022/06/14 03:07:25;;;;;;;6.17;2.20;;;12.60;99.90;;;;;;5048783;28;20196;-55
2022/06/14 03:09:53;;;;;;;6.57;2.23;;;12.60;99.90;;;;;;5048795;28;20250;-55
2022/06/14 03:12:45;;;;;;;5.33;2.07;;;12.60;99.90;;;;;;5044746;28;20289;-55
2022/06/14 03:15:47;;;;;;;3.97;1.80;;;12.60;99.90;;;;;;5044811;28;20211;-54
2022/06/14 03:18:36;;;;;;;6.20;2.30;;;12.60;99.90;;;;;;5037292;28;20257;-55
2022/06/14 03:21:38;;;;;;;8.77;2.77;;;12.70;99.90;;;;;;5049335;28;20665;-55
2022/06/14 03:24:13;;;;;;;5.50;2.00;;;12.70;99.90;;;;;;5050032;28;20198;-57
2022/06/14 03:27:10;;;;;;;5.03;2.60;;;12.70;99.90;;;;;;5033039;28;20207;-54
2022/06/14 03:30:05;;;;;;;5.23;2.17;;;12.60;99.90;;;;;;5046789;28;20217;-56
2022/06/14 03:32:44;;;;;;;5.17;2.27;;;12.60;99.90;;;;;;5038655;28;20236;-55
2022/06/14 03:35:25;;;;;;;6.03;2.67;;;12.60;99.90;;;;;;5034846;28;20278;-55
2022/06/14 03:37:55;;;;;;;6.10;2.60;;;12.60;99.90;;;;;;5041787;28;20308;-55
2022/06/14 03:40:23;;;;;;;5.17;2.50;;;12.30;99.90;;;;;;5048760;28;20220;-55
2022/06/14 03:42:51;;;;;;;7.47;2.70;;;12.30;99.90;;;;;;5040261;28;20629;-55
2022/06/14 03:45:28;;;;;;;7.30;2.43;;;12.40;99.90;;;;;;5048628;28;20307;-56
2022/06/14 03:47:54;;;;;;;5.27;2.20;;;12.40;99.90;;;;;;5034316;28;20709;-55
2022/06/14 03:50:29;;;;;;;3.53;2.10;;;12.40;99.90;;;;;;5045864;28;20232;-55
2022/06/14 03:53:29;;;;;;;4.47;2.20;;;12.50;99.90;;;;;;5044748;28;20223;-54
2022/06/14 03:56:10;;;;;;;4.80;2.10;;;12.40;99.90;;;;;;5045786;28;20196;-55
2022/06/14 03:58:51;;;;;;;5.73;2.50;;;12.40;99.90;;;;;;5033758;28;20919;-55
2022/06/14 04:01:26;;;;;;;4.90;2.10;;;12.40;99.90;;;;;;5043823;28;20334;-53
2022/06/14 04:03:59;;;;;;;3.87;2.13;;;12.30;99.90;;;;;;5037676;28;20288;-54
2022/06/14 04:06:48;;;;;;;4.53;2.27;;;12.30;99.90;;;;;;5050037;28;20247;-55
2022/06/14 04:09:53;;;;;;;3.70;2.03;;;12.30;99.90;;;;;;5043649;28;20683;-55
2022/06/14 04:12:27;;;;;;;2.90;2.00;;;12.40;99.90;;;;;;5041113;28;20734;-54
2022/06/14 04:15:16;;;;;;;5.63;2.27;;;12.50;99.90;;;;;;5039650;28;20260;-55
2022/06/14 04:18:00;;;;;;;6.97;2.33;;;12.40;99.90;;;;;;5050022;28;20200;-55
2022/06/14 04:20:32;;;;;;;5.57;2.23;;;12.50;99.90;;;;;;5046027;28;20208;-55
2022/06/14 04:23:28;;;;;;;8.00;2.30;;;12.60;99.90;;;;;;5041665;28;20210;-54
2022/06/14 04:26:00;;;;;;;3.73;2.20;;;12.60;99.90;;;;;;5046810;28;20312;-55
2022/06/14 04:28:35;;;;;;;5.17;2.67;;;12.60;99.90;;;;;;5042187;28;20237;-55
2022/06/14 04:31:10;;;;;;;7.40;1.93;;;12.70;99.90;;;;;;5043627;28;20310;-54
2022/06/14 04:33:46;;;;;;;6.23;2.00;;;12.70;99.90;;;;;;5042707;28;20622;-54
2022/06/14 04:36:21;;;;;;;4.27;2.00;;;12.60;99.90;;;;;;5042615;28;20535;-57
2022/06/14 04:38:56;;;;;;;2.83;1.97;;;12.60;99.90;;;;;;5047622;28;20785;-54
2022/06/14 04:41:27;;;;;;;2.83;1.93;;;12.50;99.90;;;;;;5044662;28;20201;-55
2022/06/14 04:44:17;;;;;;;2.27;1.60;;;12.60;99.90;;;;;;5048704;28;20205;-56
2022/06/14 04:47:02;;;;;;;4.67;2.10;;;12.60;99.90;;;;;;5051782;28;20302;-54
2022/06/14 04:49:41;;;;;;;4.73;2.20;;;12.70;99.90;;;;;;5051154;28;20250;-54
2022/06/14 04:52:29;;;;;;;5.40;2.43;;;12.70;99.90;;;;;;5038813;28;20648;-55
2022/06/14 04:55:06;;;;;;;4.07;2.80;;;12.80;99.90;;;;;;5047009;28;20202;-55
2022/06/14 04:57:43;;;;;;;7.53;3.07;;;12.90;99.90;;;;;;5043102;28;20729;-54
2022/06/14 05:00:24;;;;;;;5.73;2.70;;;13.00;99.90;;;;;;5049134;28;20726;-55
2022/06/14 05:02:57;;;;;;;4.20;2.60;;;13.10;99.90;;;;;;5044886;28;20284;-55
2022/06/14 05:05:33;;;;;;;6.33;2.93;;;13.20;99.90;;;;;;5053246;28;20288;-54
2022/06/14 05:08:08;;;;;;;5.90;2.50;;;13.30;99.90;;;;;;5052169;28;20265;-55
2022/06/14 05:10:44;;;;;;;8.17;3.93;;;13.30;99.90;;;;;;5048242;28;20281;-55
2022/06/14 05:13:30;;;;;;;6.20;3.03;;;13.40;99.90;;;;;;5047672;28;20198;-56
2022/06/14 05:16:06;;;;;;;7.73;2.90;;;13.50;99.90;;;;;;5037860;28;20511;-55
2022/06/14 05:18:55;;;;;;;6.17;3.03;;;13.70;99.90;;;;;;5049466;28;20628;-55
2022/06/14 05:21:35;;;;;;;5.97;3.30;;;13.80;99.90;;;;;;5047071;28;20246;-55
2022/06/14 05:24:05;;;;;;;8.07;3.40;;;13.90;99.90;;;;;;5050596;28;20257;-55
2022/06/14 05:26:56;;;;;;;7.57;3.30;;;14.00;99.90;;;;;;5049779;28;20202;-55
2022/06/14 05:29:33;;;;;;;6.97;3.03;;;14.20;99.90;;;;;;5051943;28;20245;-55
2022/06/14 05:32:06;;;;;;;7.27;3.17;;;14.30;99.90;;;;;;5047252;28;20683;-55
2022/06/14 05:34:52;;;;;;;11.23;2.90;;;14.40;99.90;;;;;;5046876;28;20568;-56
2022/06/14 05:37:18;;;;;;;6.47;3.10;;;14.50;99.90;;;;;;5051121;28;20339;-53
2022/06/14 05:39:54;;;;;;;5.80;3.07;;;14.70;99.90;;;;;;5053573;28;20205;-55
2022/06/14 05:42:30;;;;;;;7.77;3.47;;;14.80;99.90;;;;;;5050639;28;20790;-56
2022/06/14 05:45:01;;;;;;;8.30;3.57;;;15.00;99.90;;;;;;5054766;28;20197;-56
2022/06/14 05:47:37;;;;;;;9.07;2.83;;;15.10;99.90;;;;;;5050779;28;20258;-54
2022/06/14 05:50:16;;;;;;;4.60;2.87;;;15.10;99.90;;;;;;5050301;28;20246;-55
2022/06/14 05:52:55;;;;;;;6.00;3.30;;;15.20;99.90;;;;;;5043233;28;20229;-54
2022/06/14 05:55:34;;;;;;;6.57;3.07;;;15.30;99.90;;;;;;5044218;28;20685;-56
2022/06/14 05:58:29;;;;;;;8.30;3.03;;;15.30;99.90;;;;;;5043321;28;20207;-57
2022/06/14 06:01:01;;;;;;;7.07;3.00;;;15.50;95.50;;;;;;5037095;28;20218;-55
2022/06/14 06:03:35;;;;;;;5.33;2.60;;;15.50;99.90;;;;;;5049170;28;20744;-55
2022/06/14 06:06:08;;;;;;;8.10;2.80;;;15.50;50.60;;;;;;5052935;28;20548;-55
2022/06/14 06:09:17;;;;;;;5.90;3.17;;;15.50;14.20;;;;;;5052783;28;20599;-55
2022/06/14 06:11:58;;;;;;;7.23;3.00;;;15.60;57.30;;;;;;5027691;28;20196;-55
2022/06/14 06:14:34;;;;;;;10.17;3.60;;;15.60;38.10;;;;;;5048172;28;20233;-55
2022/06/14 06:17:09;;;;;;;5.27;3.10;;;15.70;65.80;;;;;;5044408;28;20288;-55
2022/06/14 06:19:55;;;;;;;5.23;3.03;;;15.70;1.00;;;;;;5044891;28;20233;-55
2022/06/14 06:22:24;;;;;;;5.27;3.33;;;15.70;33.60;;;;;;5046806;28;20887;-54
2022/06/14 06:25:07;;;;;;;5.27;2.53;;;15.80;1.00;;;;;;5050514;28;20678;-54
2022/06/14 06:27:52;;;;;;;7.23;2.73;;;15.80;5.80;;;;;;5035045;28;20298;-56
2022/06/14 06:30:24;;;;;;;5.20;2.20;;;15.70;1.00;;;;;;5049233;28;21487;-53
2022/06/14 06:32:51;;;;;;;8.23;2.60;;;16.00;1.00;;;;;;5032551;28;20622;-56
2022/06/14 06:35:19;;;;;;;4.57;2.50;;;16.10;1.00;;;;;;5045123;28;20638;-55
2022/06/14 06:38:05;;;;;;;4.13;1.97;;;16.20;1.00;;;;;;5034336;28;20664;-56
2022/06/14 06:40:32;;;;;;;7.73;3.63;;;16.40;1.00;;;;;;5040534;28;20284;-56
2022/06/14 06:43:11;;;;;;;6.03;3.23;;;16.70;1.00;;;;;;5033237;28;20265;-55
2022/06/14 06:45:42;;;;;;;4.80;1.87;;;16.80;1.00;;;;;;5040068;28;20230;-55
2022/06/14 06:48:17;;;;;;;3.20;2.27;;;16.70;1.00;;;;;;5040011;28;20636;-54
2022/06/14 06:50:51;;;;;;;4.93;1.70;;;16.90;1.00;;;;;;5047949;28;20541;-55
2022/06/14 06:53:23;;;;;;;6.17;2.00;;;17.10;1.00;;;;;;5043784;28;20616;-57
2022/06/14 06:56:08;;;;;;;3.00;1.90;;;17.40;1.00;;;;;;5037207;28;20314;-55
2022/06/14 06:58:50;;;;;;;8.17;2.07;;;17.30;1.00;;;;;;5043855;28;20229;-55
2022/06/14 07:01:31;;;;;;;5.30;2.23;;;17.40;1.00;;;;;;5046484;28;20238;-56
2022/06/14 07:05:03;;;;;;;8.00;2.33;;;17.60;1.00;;;;;;5047014;28;20558;-59
2022/06/14 07:07:24;;;;;;;4.97;1.40;;;17.70;1.00;;;;;;5049898;28;20208;-55
2022/06/14 07:10:19;;;;;;;6.97;1.50;;;17.90;1.00;;;;;;5049065;28;20544;-55
2022/06/14 07:12:57;;;;;;;5.03;1.53;;;17.90;1.00;;;;;;5001960;28;20299;-57
2022/06/14 07:15:39;;;;;;;1.80;1.53;;;18.30;1.00;;;;;;5047540;28;20777;-55
2022/06/14 07:18:26;;;;;;;2.07;1.00;;;18.50;1.00;;;;;;5041392;28;20242;-56
2022/06/14 07:21:08;;;;;;;3.50;1.03;;;18.50;99.90;;;;;;5046344;28;20624;-56
2022/06/14 07:24:12;;;;;;;3.40;0.97;;;17.90;99.90;;;;;;5048514;28;20621;-54
2022/06/14 07:26:46;;;;;;;2.37;1.07;;;18.20;1.00;;;;;;5051281;28;20198;-54
2022/06/14 07:29:27;;;;;;;2.13;0.80;;;18.20;99.90;;;;;;5068750;28;20677;-54
2022/06/14 07:32:16;;;;;;;2.70;0.80;;;18.10;99.90;;;;;;5051580;28;20200;-55
2022/06/14 07:34:53;;;;;;;2.57;1.43;;;18.50;99.90;;;;;;5049195;28;20206;-56
2022/06/14 07:37:34;;;;;;;4.17;0.93;;;18.70;99.90;;;;;;5052729;28;20275;-55
2022/06/14 07:40:16;;;;;;;3.77;0.90;;;18.80;99.90;;;;;;5039185;28;20256;-55
2022/06/14 07:42:54;;;;;;;4.33;1.60;;;18.90;99.90;;;;;;5044744;28;20626;-54
2022/06/14 07:45:37;;;;;;;3.43;1.20;;;18.80;99.90;;;;;;5049309;28;20258;-54
2022/06/14 07:48:18;;;;;;;1.80;1.00;;;19.20;99.90;;;;;;5051277;28;20234;-55
2022/06/14 07:50:47;;;;;;;4.63;1.07;;;19.10;99.90;;;;;;5047175;28;20265;-55
2022/06/14 07:53:25;;;;;;;3.47;1.10;;;19.50;99.90;;;;;;5050841;28;20216;-54
2022/06/14 07:56:01;;;;;;;3.13;1.10;;;19.70;99.90;;;;;;5048647;28;20237;-55
2022/06/14 07:58:31;;;;;;;2.87;1.37;;;19.60;99.90;;;;;;5047219;28;20202;-54
2022/06/14 08:01:09;;;;;;;3.40;1.20;;;19.80;99.90;;;;;;5049534;28;20213;-56
2022/06/14 08:03:52;;;;;;;6.17;1.60;;;19.70;99.90;;;;;;5034630;28;20218;-55
2022/06/14 08:06:26;;;;;;;2.97;1.07;;;19.60;1.00;;;;;;5050358;28;20620;-54
2022/06/14 08:09:01;;;;;;;2.93;1.00;;;19.50;1.00;;;;;;5054234;28;20225;-56
2022/06/14 08:11:51;;;;;;;3.30;1.10;;;19.20;1.00;;;;;;5047842;28;20230;-56
2022/06/14 08:14:32;;;;;;;2.90;1.17;;;19.90;1.00;;;;;;5033467;28;20204;-56
2022/06/14 08:17:01;;;;;;;2.13;1.20;;;20.20;99.90;;;;;;5049620;28;20631;-55
2022/06/14 08:19:42;;;;;;;6.43;1.07;;;20.10;99.90;;;;;;5049534;28;20300;-54
2022/06/14 08:22:16;;;;;;;2.17;1.20;;;20.10;1.00;;;;;;5048000;28;20231;-56
2022/06/14 08:24:50;;;;;;;3.60;1.00;;;20.40;1.00;;;;;;5066058;28;20203;-54
2022/06/14 08:27:32;;;;;;;4.27;1.23;;;20.50;1.00;;;;;;5047391;28;20454;-54
2022/06/14 08:30:16;;;;;;;3.10;1.23;;;20.60;99.90;;;;;;5037616;28;20227;-54
2022/06/14 08:32:55;;;;;;;2.27;1.27;;;20.30;85.60;;;;;;5048156;28;21657;-53
2022/06/14 08:35:50;;;;;;;2.90;1.30;;;20.80;58.60;;;;;;5049508;28;20196;-55
2022/06/14 08:38:25;;;;;;;2.13;1.10;;;20.30;52.40;;;;;;5040970;28;20199;-56
2022/06/14 08:41:28;;;;;;;5.20;1.13;;;20.50;83.60;;;;;;5047812;28;20795;-55
2022/06/14 08:44:25;;;;;;;4.33;1.00;;;20.90;99.90;;;;;;5019932;28;20375;-55
2022/06/14 08:46:58;;;;;;;2.20;1.27;;;21.20;99.90;;;;;;5036485;28;20299;-56
2022/06/14 08:49:54;;;;;;;1.57;1.10;;;20.70;18.30;;;;;;5049460;28;20708;-54
2022/06/14 08:52:40;;;;;;;2.97;1.30;;;20.00;99.90;;;;;;5044169;28;20221;-54
2022/06/14 08:55:33;;;;;;;1.93;1.17;;;21.00;99.90;;;;;;5051773;28;20226;-54
2022/06/14 08:58:33;;;;;;;2.53;1.30;;;19.80;99.90;;;;;;5034477;28;20280;-54
2022/06/14 09:01:26;;;;;;;2.60;1.23;;;20.50;1.00;;;;;;5035521;28;20199;-54
2022/06/14 09:04:15;;;;;;;4.37;1.07;;;20.70;1.00;;;;;;5036021;28;20195;-54
2022/06/14 09:07:26;;;;;;;3.30;1.63;;;21.20;1.00;;;;;;5048277;28;20555;-54
2022/06/14 09:10:33;;;;;;;3.97;1.20;;;21.10;1.00;;;;;;5048024;28;20204;-54
2022/06/14 09:13:25;;;;;;;3.90;1.63;;;20.60;83.30;;;;;;5047775;28;20301;-55
2022/06/14 09:16:20;;;;;;;2.97;1.30;;;20.60;99.90;;;;;;5045982;28;20196;-56
2022/06/14 09:18:55;;;;;;;2.13;1.20;;;20.90;99.90;;;;;;5048287;28;20655;-54
2022/06/14 09:21:42;;;;;;;4.10;1.20;;;21.20;99.90;;;;;;5049136;28;20209;-55
2022/06/14 09:24:41;;;;;;;2.30;1.47;;;20.70;99.90;;;;;;5051111;28;20653;-54
2022/06/14 09:27:19;;;;;;;3.27;1.60;;;21.40;99.90;;;;;;5054604;28;20584;-59
2022/06/14 09:30:05;;;;;;;3.73;1.70;;;21.30;99.90;;;;;;5052553;28;20578;-55
2022/06/14 09:33:09;;;;;;;7.23;2.30;;;21.10;99.90;;;;;;5053585;28;20232;-55
2022/06/14 09:35:55;;;;;;;4.43;1.73;;;21.00;99.90;;;;;;5054671;28;20666;-55
2022/06/14 09:38:57;;;;;;;4.03;2.27;;;21.50;99.90;;;;;;5051636;28;20672;-55
2022/06/14 09:41:38;;;;;;;4.00;2.20;;;21.40;99.90;;;;;;5055221;28;20239;-55
2022/06/14 09:44:21;;;;;;;5.00;2.27;;;21.60;99.90;;;;;;5037860;28;20199;-55
2022/06/14 09:46:53;;;;;;;4.17;1.90;;;21.70;99.90;;;;;;5049992;28;20283;-55
2022/06/14 09:50:00;;;;;;;3.27;1.73;;;21.00;99.90;;;;;;5037218;28;20239;-56
2022/06/14 09:52:45;;;;;;;3.30;1.80;;;20.70;1.00;;;;;;5053218;28;20218;-55
2022/06/14 09:55:30;;;;;;;4.63;2.83;;;20.70;1.00;;;;;;5051904;28;20211;-54
2022/06/14 09:58:08;;;;;;;8.13;1.80;;;20.70;99.90;;;;;;5050131;28;20272;-56
2022/06/14 10:01:12;;;;;;;4.33;2.00;;;21.10;1.00;;;;;;5054534;28;20587;-56
2022/06/14 10:03:55;;;;;;;3.47;2.00;;;21.70;1.00;;;;;;5053407;28;20225;-55
2022/06/14 10:06:39;;;;;;;4.10;1.87;;;22.10;1.00;;;;;;5052734;28;20607;-55
2022/06/14 10:09:22;;;;;;;3.50;1.83;;;22.00;1.00;;;;;;5054648;28;20219;-54
2022/06/14 10:12:08;;;;;;;7.30;2.70;;;22.20;99.90;;;;;;5054489;28;20256;-55
2022/06/14 10:14:46;;;;;;;3.30;1.73;;;22.30;1.00;;;;;;5052071;28;20249;-56
2022/06/14 10:17:27;;;;;;;3.57;1.90;;;22.10;1.00;;;;;;5053336;28;20574;-55
2022/06/14 10:20:29;;;;;;;4.40;1.60;;;21.20;1.00;;;;;;5040553;28;20257;-55
2022/06/14 10:23:08;;;;;;;3.30;1.63;;;21.00;1.00;;;;;;5030574;28;20219;-55
2022/06/14 10:29:21;;;;;;;3.23;1.40;;;21.00;99.90;;;;;;5053881;28;20204;-54
2022/06/14 10:32:15;;;;;;;3.77;1.83;;;21.10;99.90;;;;;;5051670;28;20223;-55
2022/06/14 10:34:57;;;;;;;3.90;1.90;;;21.00;1.00;;;;;;5052343;28;20357;-54
2022/06/14 10:38:06;;;;;;;5.03;2.30;;;20.60;1.00;;;;;;5051674;28;20207;-54
2022/06/14 10:40:51;;;;;;;6.33;2.00;;;20.50;1.00;;;;;;5051651;28;20565;-54
2022/06/14 10:43:18;;;;;;;4.90;1.70;;;21.10;99.90;;;;;;5048370;28;20200;-56
2022/06/14 10:46:29;;;;;;;3.50;1.80;;;21.30;1.00;;;;;;5055526;28;20234;-55
2022/06/14 10:49:30;;;;;;;4.13;1.87;;;20.90;1.00;;;;;;5052129;28;20226;-55
2022/06/14 10:52:10;;;;;;;6.20;1.90;;;21.30;1.00;;;;;;5036522;28;20643;-55
2022/06/14 10:54:57;;;;;;;3.57;2.03;;;22.10;99.90;;;;;;5041731;28;20294;-56
2022/06/14 10:57:42;;;;;;;3.83;1.93;;;21.50;99.90;;;;;;5054222;28;20212;-55
2022/06/14 11:00:21;;;;;;;4.63;1.70;;;20.70;99.90;;;;;;5052549;28;20228;-56
2022/06/14 11:03:18;;;;;;;4.63;2.20;;;21.40;99.90;;;;;;5056753;28;20518;-55
2022/06/14 11:06:19;;;;;;;4.13;2.00;;;21.40;99.90;;;;;;5056251;28;20203;-54
2022/06/14 11:09:24;;;;;;;10.37;2.23;;;22.30;99.90;;;;;;5039082;28;20655;-55
2022/06/14 11:12:06;;;;;;;5.90;2.10;;;21.80;99.90;;;;;;5021762;28;20266;-55
2022/06/14 11:14:50;;;;;;;4.33;1.83;;;20.80;99.90;;;;;;5055836;28;20209;-55
2022/06/14 11:17:46;;;;;;;3.87;2.93;;;20.40;99.90;;;;;;5053345;28;20203;-54
2022/06/14 11:20:16;;;;;;;5.07;2.00;;;21.10;99.90;;;;;;5050445;28;20494;-55
2022/06/14 11:23:22;;;;;;;2.40;1.70;;;21.50;99.90;;;;;;5047802;28;20214;-55
2022/06/14 11:25:55;;;;;;;3.23;1.93;;;21.60;99.90;;;;;;5046966;28;20265;-55
2022/06/14 11:28:43;;;;;;;2.60;1.50;;;22.00;99.90;;;;;;5054475;28;20203;-53
2022/06/14 11:31:23;;;;;;;5.43;1.60;;;22.30;99.90;;;;;;5040975;28;20392;-55
2022/06/14 11:34:02;;;;;;;3.77;1.40;;;22.30;1.00;;;;;;5054077;28;20204;-55
2022/06/14 11:36:37;;;;;;;3.00;1.33;;;22.20;99.90;;;;;;5045224;28;20203;-54
2022/06/14 11:39:31;;;;;;;2.50;1.30;;;22.50;99.90;;;;;;5050643;28;20216;-55
2022/06/14 11:42:06;;;;;;;2.00;1.20;;;22.70;99.90;;;;;;5045290;28;20286;-55
2022/06/14 11:45:01;;;;;;;1.33;1.00;;;23.30;99.90;;;;;;5049547;28;20690;-55
2022/06/14 11:47:44;;;;;;;3.60;1.20;;;23.50;99.90;;;;;;5053911;28;20756;-54
2022/06/14 11:50:26;;;;;;;3.97;1.00;;;23.50;99.90;;;;;;5044247;28;20255;-55
2022/06/14 11:53:02;;;;;;;2.33;1.27;;;23.60;99.90;;;;;;5039438;28;20219;-55
2022/06/14 11:55:42;;;;;;;3.40;1.23;;;24.00;99.90;;;;;;5050321;28;20739;-54
2022/06/14 11:58:14;;;;;;;5.40;1.57;;;24.00;99.90;;;;;;5046477;28;20257;-56
2022/06/14 12:00:55;;;;;;;3.03;0.90;;;23.80;99.90;;;;;;5037720;28;20678;-56
2022/06/14 12:03:28;;;;;;;4.93;1.27;;;23.90;1.00;;;;;;5053519;28;20337;-54
2022/06/14 12:06:17;;;;;;;3.77;1.30;;;23.90;1.00;;;;;;5051208;28;20240;-56
2022/06/14 12:09:16;;;;;;;5.77;1.53;;;24.00;99.90;;;;;;5043378;28;20204;-55
2022/06/14 12:11:53;;;;;;;3.30;1.00;;;23.00;93.90;;;;;;5043877;28;20220;-55
2022/06/14 12:14:49;;;;;;;6.43;1.63;;;23.70;1.00;;;;;;5049150;28;20204;-55
2022/06/14 12:17:36;;;;;;;2.07;1.10;;;23.60;1.00;;;;;;5043399;28;20490;-55
2022/06/14 12:20:11;;;;;;;3.33;1.30;;;23.50;1.00;;;;;;5035102;28;20276;-55
2022/06/14 12:22:57;;;;;;;4.07;1.30;;;23.30;1.00;;;;;;5043239;28;20599;-55
2022/06/14 12:28:25;;;;;;;5.10;1.70;;;23.90;1.00;;;;;;5047956;28;20703;-55
2022/06/14 12:31:03;;;;;;;4.47;1.40;;;24.20;99.90;;;;;;5045187;28;20270;-54
2022/06/14 12:33:51;;;;;;;2.30;1.30;;;24.40;94.60;;;;;;5044194;28;20200;-54
2022/06/14 12:36:32;;;;;;;2.33;1.30;;;23.70;81.90;;;;;;5040420;28;20199;-53
2022/06/14 12:39:05;;;;;;;2.90;1.43;;;23.50;1.00;;;;;;5046544;28;20607;-55
2022/06/14 12:41:37;;;;;;;4.80;1.63;;;23.50;1.00;;;;;;5047801;28;20694;-54
2022/06/14 12:44:44;;;;;;;3.87;1.40;;;23.70;1.00;;;;;;5049279;28;20244;-54
2022/06/14 12:47:19;;;;;;;4.30;1.43;;;23.70;1.00;;;;;;5034210;28;20236;-56
2022/06/14 12:49:51;;;;;;;3.60;1.67;;;23.10;1.00;;;;;;5048065;28;20333;-56
2022/06/14 12:52:26;;;;;;;5.53;3.13;;;23.00;1.00;;;;;;5048583;28;20265;-55
2022/06/14 12:55:24;;;;;;;5.20;2.10;;;23.90;1.00;;;;;;5050249;28;20202;-55
2022/06/14 12:58:17;;;;;;;3.03;1.70;;;22.50;1.00;;;;;;5042039;28;20348;-55
2022/06/14 13:00:59;;;;;;;4.70;1.30;;;22.50;1.00;;;;;;5043553;28;20256;-55
2022/06/14 13:03:53;;;;;;;3.73;1.40;;;22.40;1.00;;;;;;5050105;28;20198;-54
2022/06/14 13:06:38;;;;;;;4.43;1.63;;;22.70;1.00;;;;;;5044564;28;20659;-55
2022/06/14 13:09:28;;;;;;;7.63;2.10;;;23.30;7.50;;;;;;5043168;28;20638;-55
2022/06/14 13:12:33;;;;;;;5.60;2.17;;;23.40;5.60;;;;;;5046278;28;20775;-56
2022/06/14 13:15:30;;;;;;;3.37;1.60;;;23.30;3.40;;;;;;5025183;28;20222;-56
2022/06/14 13:18:27;;;;;;;4.53;1.67;;;23.60;1.00;;;;;;5014930;28;20334;-55
2022/06/14 13:21:01;;;;;;;3.97;1.70;;;23.30;25.80;;;;;;5033017;28;20541;-56
2022/06/14 13:23:49;;;;;;;4.57;1.50;;;23.10;1.00;;;;;;5043567;28;20249;-55
2022/06/14 13:26:35;;;;;;;3.83;1.73;;;23.60;8.50;;;;;;5035468;28;20269;-56
2022/06/14 13:29:38;;;;;;;3.97;1.60;;;23.50;99.90;;;;;;5051664;28;20276;-54
2022/06/14 13:32:31;;;;;;;2.73;1.50;;;23.50;1.00;;;;;;5047345;28;20216;-56
2022/06/14 13:35:28;;;;;;;4.63;2.20;;;23.70;1.00;;;;;;5047578;28;20235;-56
2022/06/14 13:37:58;;;;;;;2.43;1.43;;;23.90;1.00;;;;;;5050636;28;20206;-55
2022/06/14 13:40:42;;;;;;;6.47;1.50;;;24.00;38.40;;;;;;5053083;28;20200;-55
2022/06/14 13:43:22;;;;;;;2.77;1.23;;;24.10;25.50;;;;;;5048849;28;20733;-56
2022/06/14 13:46:05;;;;;;;3.57;1.50;;;24.20;54.90;;;;;;5048396;28;20730;-55
2022/06/14 13:48:42;;;;;;;2.37;1.33;;;23.80;41.70;;;;;;5047159;28;20851;-55
2022/06/14 13:51:37;;;;;;;6.43;2.10;;;23.40;1.00;;;;;;5037272;28;20238;-57
2022/06/14 13:54:21;;;;;;;3.77;2.20;;;23.50;3.90;;;;;;5046525;28;20911;-54
2022/06/14 13:56:53;;;;;;;2.93;1.70;;;23.40;1.00;;;;;;5048454;28;20191;-55
2022/06/14 13:59:24;;;;;;;5.30;1.70;;;23.10;1.00;;;;;;5048856;28;20639;-55
2022/06/14 14:02:34;;;;;;;2.47;1.67;;;23.40;1.00;;;;;;5036274;28;20657;-55
2022/06/14 14:05:04;;;;;;;3.83;1.60;;;23.60;1.00;;;;;;5020669;28;20849;-55
2022/06/14 14:07:40;;;;;;;5.10;1.63;;;23.70;1.00;;;;;;5043954;28;20654;-55
2022/06/14 14:10:10;;;;;;;3.70;1.63;;;23.50;1.00;;;;;;5038037;28;20650;-54
2022/06/14 14:12:48;;;;;;;3.57;1.60;;;23.50;28.90;;;;;;5041895;28;20313;-53
2022/06/14 14:15:20;;;;;;;3.93;1.60;;;22.50;1.00;;;;;;5027581;28;20191;-55
2022/06/14 14:18:10;;;;;;;3.53;2.10;;;22.50;1.00;;;;;;5024032;28;20581;-56